sensor_id;sensor_type;location;lat;lon;timestamp;pressure;altitude;pressure_sealevel;temperature;humidity
71795;BME280;59641;45.188;5.712;2023-01-09T00:00:12;98145.97;;;12.89;68.87
71795;BME280;59641;45.188;5.712;2023-01-09T00:02:38;98149.22;;;12.91;68.74
71795;BME280;59641;45.188;5.712;2023-01-09T00:05:06;98167.81;;;12.92;68.89
71795;BME280;59641;45.188;5.712;2023-01-09T00:07:32;98164.03;;;12.93;68.68
71795;BME280;59641;45.188;5.712;2023-01-09T00:09:58;98167.53;;;12.94;69.11
71795;BME280;59641;45.188;5.712;2023-01-09T00:12:23;98166.47;;;12.95;68.63
71795;BME280;59641;45.188;5.712;2023-01-09T00:14:48;98169.41;;;12.93;68.46
71795;BME280;59641;45.188;5.712;2023-01-09T00:17:14;98188.25;;;12.93;68.81
71795;BME280;59641;45.188;5.712;2023-01-09T00:19:39;98224.59;;;12.91;69.06
71795;BME280;59641;45.188;5.712;2023-01-09T00:22:04;98246.41;;;12.89;69.25
71795;BME280;59641;45.188;5.712;2023-01-09T00:24:31;98202.78;;;12.87;68.98
71795;BME280;59641;45.188;5.712;2023-01-09T00:26:56;98248.25;;;12.78;65.60
71795;BME280;59641;45.188;5.712;2023-01-09T00:29:21;98244.38;;;12.64;64.32
71795;BME280;59641;45.188;5.712;2023-01-09T00:31:47;98253.75;;;12.51;63.73
71795;BME280;59641;45.188;5.712;2023-01-09T00:34:12;98249.59;;;12.39;64.21
71795;BME280;59641;45.188;5.712;2023-01-09T00:36:38;98265.19;;;12.31;64.18
71795;BME280;59641;45.188;5.712;2023-01-09T00:39:04;98255.19;;;12.27;64.23
71795;BME280;59641;45.188;5.712;2023-01-09T00:41:43;98263.75;;;12.24;63.64
71795;BME280;59641;45.188;5.712;2023-01-09T00:44:32;98253.78;;;12.19;63.72
71795;BME280;59641;45.188;5.712;2023-01-09T00:47:04;98263.69;;;12.13;64.09
71795;BME280;59641;45.188;5.712;2023-01-09T00:49:34;98274.44;;;12.13;64.08
71795;BME280;59641;45.188;5.712;2023-01-09T00:52:01;98276.06;;;12.14;64.13
71795;BME280;59641;45.188;5.712;2023-01-09T00:54:27;98273.13;;;12.16;64.43
71795;BME280;59641;45.188;5.712;2023-01-09T00:56:55;98256.97;;;12.16;64.51
71795;BME280;59641;45.188;5.712;2023-01-09T00:59:21;98251.34;;;12.18;64.34
71795;BME280;59641;45.188;5.712;2023-01-09T01:01:46;98275.56;;;12.18;64.42
71795;BME280;59641;45.188;5.712;2023-01-09T01:04:12;98279.06;;;12.18;64.48
71795;BME280;59641;45.188;5.712;2023-01-09T01:06:56;98287.13;;;12.18;64.77
71795;BME280;59641;45.188;5.712;2023-01-09T01:09:40;98283.88;;;12.16;64.92
71795;BME280;59641;45.188;5.712;2023-01-09T01:12:05;98266.38;;;12.13;64.92
71795;BME280;59641;45.188;5.712;2023-01-09T01:14:35;98260.72;;;12.10;64.89
71795;BME280;59641;45.188;5.712;2023-01-09T01:17:01;98268.22;;;12.08;64.93
71795;BME280;59641;45.188;5.712;2023-01-09T01:19:27;98263.66;;;12.08;64.89
71795;BME280;59641;45.188;5.712;2023-01-09T01:21:52;98260.41;;;12.06;64.85
71795;BME280;59641;45.188;5.712;2023-01-09T01:24:17;98256.91;;;12.06;65.19
71795;BME280;59641;45.188;5.712;2023-01-09T01:26:44;98278.94;;;12.03;65.39
71795;BME280;59641;45.188;5.712;2023-01-09T01:29:10;98265.50;;;12.03;65.39
71795;BME280;59641;45.188;5.712;2023-01-09T01:31:35;98273.25;;;11.99;64.97
71795;BME280;59641;45.188;5.712;2023-01-09T01:34:00;98282.06;;;11.94;65.22
71795;BME280;59641;45.188;5.712;2023-01-09T01:36:26;98311.09;;;11.92;65.15
71795;BME280;59641;45.188;5.712;2023-01-09T01:38:51;98350.84;;;11.90;65.19
71795;BME280;59641;45.188;5.712;2023-01-09T01:41:17;98375.88;;;11.91;65.21
71795;BME280;59641;45.188;5.712;2023-01-09T01:43:59;98383.09;;;11.90;65.34
71795;BME280;59641;45.188;5.712;2023-01-09T01:46:25;98407.97;;;11.81;65.78
71795;BME280;59641;45.188;5.712;2023-01-09T01:49:13;98397.44;;;11.74;66.19
71795;BME280;59641;45.188;5.712;2023-01-09T01:51:42;98384.75;;;11.69;66.46
71795;BME280;59641;45.188;5.712;2023-01-09T01:54:14;98376.69;;;11.69;66.44
71795;BME280;59641;45.188;5.712;2023-01-09T01:56:45;98375.09;;;11.73;66.34
71795;BME280;59641;45.188;5.712;2023-01-09T01:59:26;98368.63;;;11.69;65.93
71795;BME280;59641;45.188;5.712;2023-01-09T02:01:55;98374.00;;;11.69;66.22
71795;BME280;59641;45.188;5.712;2023-01-09T02:04:22;98381.53;;;11.72;66.69
71795;BME280;59641;45.188;5.712;2023-01-09T02:06:50;98385.34;;;11.77;66.37
71795;BME280;59641;45.188;5.712;2023-01-09T02:09:16;98394.53;;;11.81;66.64
71795;BME280;59641;45.188;5.712;2023-01-09T02:11:45;98396.72;;;11.84;66.40
71795;BME280;59641;45.188;5.712;2023-01-09T02:14:11;98422.53;;;11.85;66.04
71795;BME280;59641;45.188;5.712;2023-01-09T02:19:28;98432.56;;;11.89;66.35
71795;BME280;59641;45.188;5.712;2023-01-09T02:25:11;98448.50;;;11.96;65.89
71795;BME280;59641;45.188;5.712;2023-01-09T02:30:35;98464.13;;;11.99;65.90
71795;BME280;59641;45.188;5.712;2023-01-09T02:41:11;98477.63;;;12.04;64.78
71795;BME280;59641;45.188;5.712;2023-01-09T02:43:39;98477.41;;;12.06;64.18
71795;BME280;59641;45.188;5.712;2023-01-09T02:46:05;98481.22;;;12.10;63.89
71795;BME280;59641;45.188;5.712;2023-01-09T02:48:31;98479.06;;;12.12;63.67
71795;BME280;59641;45.188;5.712;2023-01-09T03:02:16;98501.56;;;12.28;63.19
71795;BME280;59641;45.188;5.712;2023-01-09T03:04:45;98494.31;;;12.28;63.17
71795;BME280;59641;45.188;5.712;2023-01-09T03:07:34;98498.94;;;12.33;63.16
71795;BME280;59641;45.188;5.712;2023-01-09T03:10:14;98493.25;;;12.29;63.30
71795;BME280;59641;45.188;5.712;2023-01-09T03:12:44;98491.63;;;12.28;63.30
71795;BME280;59641;45.188;5.712;2023-01-09T03:15:13;98494.88;;;12.30;63.29
71795;BME280;59641;45.188;5.712;2023-01-09T03:17:45;98493.25;;;12.29;63.51
71795;BME280;59641;45.188;5.712;2023-01-09T03:20:15;98497.56;;;12.30;63.36
71795;BME280;59641;45.188;5.712;2023-01-09T03:23:03;98504.59;;;12.31;63.53
71795;BME280;59641;45.188;5.712;2023-01-09T03:25:29;98501.34;;;12.29;63.56
71795;BME280;59641;45.188;5.712;2023-01-09T03:28:04;98498.38;;;12.31;63.46
71795;BME280;59641;45.188;5.712;2023-01-09T03:30:31;98496.75;;;12.30;63.38
71795;BME280;59641;45.188;5.712;2023-01-09T03:32:57;98495.13;;;12.29;63.51
71795;BME280;59641;45.188;5.712;2023-01-09T03:35:23;98497.56;;;12.30;63.49
71795;BME280;59641;45.188;5.712;2023-01-09T03:37:48;98502.94;;;12.30;63.32
71795;BME280;59641;45.188;5.712;2023-01-09T03:40:16;98504.84;;;12.30;63.24
71795;BME280;59641;45.188;5.712;2023-01-09T03:42:42;98499.69;;;12.28;63.29
71795;BME280;59641;45.188;5.712;2023-01-09T03:45:07;98501.34;;;12.29;63.26
71795;BME280;59641;45.188;5.712;2023-01-09T03:47:33;98505.06;;;12.28;62.95
71795;BME280;59641;45.188;5.712;2023-01-09T03:49:58;98506.72;;;12.29;63.17
71795;BME280;59641;45.188;5.712;2023-01-09T03:52:24;98505.63;;;12.30;63.03
71795;BME280;59641;45.188;5.712;2023-01-09T03:54:49;98518.84;;;12.32;63.00
71795;BME280;59641;45.188;5.712;2023-01-09T03:57:14;98503.50;;;12.32;62.92
71795;BME280;59641;45.188;5.712;2023-01-09T03:59:40;98510.50;;;12.33;62.59
71795;BME280;59641;45.188;5.712;2023-01-09T04:02:05;98507.00;;;12.33;62.87
71795;BME280;59641;45.188;5.712;2023-01-09T04:04:31;98508.91;;;12.32;62.74
71795;BME280;59641;45.188;5.712;2023-01-09T04:06:56;98507.81;;;12.33;62.54
71795;BME280;59641;45.188;5.712;2023-01-09T04:09:21;98511.59;;;12.32;62.69
71795;BME280;59641;45.188;5.712;2023-01-09T04:11:47;98515.06;;;12.33;62.62
71795;BME280;59641;45.188;5.712;2023-01-09T04:14:12;98514.03;;;12.34;62.79
71795;BME280;59641;45.188;5.712;2023-01-09T04:16:38;98502.19;;;12.35;62.55
71795;BME280;59641;45.188;5.712;2023-01-09T04:19:03;98504.06;;;12.34;62.65
71795;BME280;59641;45.188;5.712;2023-01-09T04:21:29;98512.94;;;12.35;62.42
71795;BME280;59641;45.188;5.712;2023-01-09T04:23:54;98511.88;;;12.36;62.48
71795;BME280;59641;45.188;5.712;2023-01-09T04:26:19;98501.38;;;12.34;62.16
71795;BME280;59641;45.188;5.712;2023-01-09T04:28:45;98505.97;;;12.34;62.42
71795;BME280;59641;45.188;5.712;2023-01-09T04:31:11;98514.03;;;12.34;62.11
71795;BME280;59641;45.188;5.712;2023-01-09T04:33:36;98516.97;;;12.32;61.83
71795;BME280;59641;45.188;5.712;2023-01-09T04:36:01;98529.84;;;12.30;62.03
71795;BME280;59641;45.188;5.712;2023-01-09T04:38:27;98521.78;;;12.30;61.78
71795;BME280;59641;45.188;5.712;2023-01-09T04:40:52;98537.34;;;12.28;61.79
71795;BME280;59641;45.188;5.712;2023-01-09T04:43:18;98545.41;;;12.28;61.84
71795;BME280;59641;45.188;5.712;2023-01-09T04:45:43;98545.41;;;12.28;61.99
71795;BME280;59641;45.188;5.712;2023-01-09T04:48:09;98557.25;;;12.27;61.74
71795;BME280;59641;45.188;5.712;2023-01-09T04:50:35;98554.81;;;12.26;61.97
71795;BME280;59641;45.188;5.712;2023-01-09T04:53:00;98557.19;;;12.22;61.50
71795;BME280;59641;45.188;5.712;2023-01-09T04:55:26;98544.00;;;12.21;61.57
71795;BME280;59641;45.188;5.712;2023-01-09T04:57:51;98556.63;;;12.20;61.86
71795;BME280;59641;45.188;5.712;2023-01-09T05:00:16;98567.91;;;12.17;61.79
71795;BME280;59641;45.188;5.712;2023-01-09T05:02:42;98574.09;;;12.18;61.78
71795;BME280;59641;45.188;5.712;2023-01-09T05:05:08;98571.88;;;12.14;61.70
71795;BME280;59641;45.188;5.712;2023-01-09T05:07:34;98564.88;;;12.13;61.71
71795;BME280;59641;45.188;5.712;2023-01-09T05:10:00;98570.75;;;12.10;61.56
71795;BME280;59641;45.188;5.712;2023-01-09T05:12:26;98570.19;;;12.08;61.32
71795;BME280;59641;45.188;5.712;2023-01-09T05:14:51;98571.25;;;12.07;61.65
71795;BME280;59641;45.188;5.712;2023-01-09T05:17:17;98565.31;;;12.05;61.36
71795;BME280;59641;45.188;5.712;2023-01-09T05:19:42;98577.94;;;12.05;61.62
71795;BME280;59641;45.188;5.712;2023-01-09T05:22:10;98581.69;;;12.04;61.32
71795;BME280;59641;45.188;5.712;2023-01-09T05:24:35;98595.63;;;12.01;61.57
71795;BME280;59641;45.188;5.712;2023-01-09T05:27:01;98599.72;;;12.03;61.50
71795;BME280;59641;45.188;5.712;2023-01-09T05:29:27;98598.31;;;12.01;61.28
71795;BME280;59641;45.188;5.712;2023-01-09T05:31:52;98602.91;;;12.00;61.13
71795;BME280;59641;45.188;5.712;2023-01-09T05:34:18;98617.38;;;11.99;60.89
71795;BME280;59641;45.188;5.712;2023-01-09T05:36:43;98619.03;;;12.00;61.10
71795;BME280;59641;45.188;5.712;2023-01-09T05:39:09;98617.38;;;11.99;61.22
71795;BME280;59641;45.188;5.712;2023-01-09T05:41:34;98621.97;;;11.99;61.14
71795;BME280;59641;45.188;5.712;2023-01-09T05:43:59;98623.25;;;11.96;61.02
71795;BME280;59641;45.188;5.712;2023-01-09T05:46:25;98636.44;;;11.98;60.84
71795;BME280;59641;45.188;5.712;2023-01-09T05:48:50;98635.16;;;12.00;61.20
71795;BME280;59641;45.188;5.712;2023-01-09T05:51:16;98640.03;;;12.03;61.16
71795;BME280;59641;45.188;5.712;2023-01-09T05:53:41;98652.97;;;12.06;60.95
71795;BME280;59641;45.188;5.712;2023-01-09T05:56:06;98662.66;;;12.07;61.04
71795;BME280;59641;45.188;5.712;2023-01-09T05:58:32;98683.72;;;12.10;61.36
71795;BME280;59641;45.188;5.712;2023-01-09T06:00:57;98682.31;;;12.08;61.18
71795;BME280;59641;45.188;5.712;2023-01-09T06:03:23;98682.25;;;12.03;61.15
71795;BME280;59641;45.188;5.712;2023-01-09T06:05:48;98677.66;;;11.86;60.77
71795;BME280;59641;45.188;5.712;2023-01-09T06:08:16;98681.72;;;11.72;60.87
71795;BME280;59641;45.188;5.712;2023-01-09T06:10:41;98699.81;;;11.60;61.16
71795;BME280;59641;45.188;5.712;2023-01-09T06:13:06;98707.44;;;11.51;61.36
71795;BME280;59641;45.188;5.712;2023-01-09T06:15:32;98706.78;;;11.44;61.43
71795;BME280;59641;45.188;5.712;2023-01-09T06:17:57;98707.97;;;11.36;61.55
71795;BME280;59641;45.188;5.712;2023-01-09T06:20:22;98702.75;;;11.29;61.71
71795;BME280;59641;45.188;5.712;2023-01-09T06:22:48;98710.72;;;11.24;61.79
71795;BME280;59641;45.188;5.712;2023-01-09T06:25:16;98709.81;;;11.19;62.00
71795;BME280;59641;45.188;5.712;2023-01-09T06:27:41;98704.09;;;11.15;62.06
71795;BME280;59641;45.188;5.712;2023-01-09T06:30:07;98713.44;;;11.13;62.34
71795;BME280;59641;45.188;5.712;2023-01-09T06:32:33;98719.31;;;11.09;62.61
71795;BME280;59641;45.188;5.712;2023-01-09T06:34:58;98719.53;;;11.08;62.87
71795;BME280;59641;45.188;5.712;2023-01-09T06:37:23;98723.28;;;11.07;63.07
71795;BME280;59641;45.188;5.712;2023-01-09T06:39:49;98718.94;;;11.06;63.17
71795;BME280;59641;45.188;5.712;2023-01-09T06:42:14;98722.69;;;11.05;63.23
71795;BME280;59641;45.188;5.712;2023-01-09T06:44:39;98722.94;;;11.03;63.09
71795;BME280;59641;45.188;5.712;2023-01-09T06:47:05;98724.22;;;11.01;63.41
71795;BME280;59641;45.188;5.712;2023-01-09T06:49:30;98725.50;;;10.98;63.40
71795;BME280;59641;45.188;5.712;2023-01-09T06:51:56;98736.50;;;10.97;63.70
71795;BME280;59641;45.188;5.712;2023-01-09T06:54:21;98732.19;;;10.96;63.96
71795;BME280;59641;45.188;5.712;2023-01-09T06:56:47;98749.94;;;10.97;64.14
71795;BME280;59641;45.188;5.712;2023-01-09T06:59:12;98759.03;;;10.96;63.90
71795;BME280;59641;45.188;5.712;2023-01-09T07:01:38;98761.13;;;10.94;63.63
71795;BME280;59641;45.188;5.712;2023-01-09T07:04:06;98770.25;;;10.93;63.40
71795;BME280;59641;45.188;5.712;2023-01-09T07:06:33;98763.47;;;10.90;63.69
71795;BME280;59641;45.188;5.712;2023-01-09T07:08:58;98764.50;;;10.89;63.96
71795;BME280;59641;45.188;5.712;2023-01-09T07:11:24;98769.06;;;10.88;63.85
71795;BME280;59641;45.188;5.712;2023-01-09T07:13:49;98767.44;;;10.87;64.25
71795;BME280;59641;45.188;5.712;2023-01-09T07:16:14;98767.78;;;10.91;64.12
71795;BME280;59641;45.188;5.712;2023-01-09T07:18:40;98766.97;;;10.91;64.04
71795;BME280;59641;45.188;5.712;2023-01-09T07:21:05;98778.78;;;10.90;64.29
71795;BME280;59641;45.188;5.712;2023-01-09T07:23:31;98779.59;;;10.90;64.21
71795;BME280;59641;45.188;5.712;2023-01-09T07:25:58;98790.53;;;10.88;64.47
71795;BME280;59641;45.188;5.712;2023-01-09T07:28:23;98797.31;;;10.91;64.29
71795;BME280;59641;45.188;5.712;2023-01-09T07:30:49;98800.25;;;10.90;64.16
71795;BME280;59641;45.188;5.712;2023-01-09T07:33:14;98805.84;;;10.88;64.13
71795;BME280;59641;45.188;5.712;2023-01-09T07:35:39;98808.75;;;10.86;64.11
71795;BME280;59641;45.188;5.712;2023-01-09T07:38:05;98816.81;;;10.86;64.04
71795;BME280;59641;45.188;5.712;2023-01-09T07:40:30;98817.88;;;10.85;63.83
71795;BME280;59641;45.188;5.712;2023-01-09T07:42:56;98813.78;;;10.83;63.71
71795;BME280;59641;45.188;5.712;2023-01-09T07:45:21;98822.88;;;10.82;63.77
71795;BME280;59641;45.188;5.712;2023-01-09T07:47:46;98821.84;;;10.83;64.13
71795;BME280;59641;45.188;5.712;2023-01-09T07:50:12;98818.09;;;10.84;63.93
71795;BME280;59641;45.188;5.712;2023-01-09T07:52:37;98819.16;;;10.83;63.72
71795;BME280;59641;45.188;5.712;2023-01-09T07:55:03;98818.34;;;10.82;63.65
71795;BME280;59641;45.188;5.712;2023-01-09T07:57:28;98818.34;;;10.82;63.69
71795;BME280;59641;45.188;5.712;2023-01-09T07:59:54;98833.38;;;10.83;63.28
71795;BME280;59641;45.188;5.712;2023-01-09T08:02:20;98838.75;;;10.83;63.52
71795;BME280;59641;45.188;5.712;2023-01-09T08:04:45;98842.03;;;10.85;63.36
71795;BME280;59641;45.188;5.712;2023-01-09T08:07:11;98845.50;;;10.86;63.34
71795;BME280;59641;45.188;5.712;2023-01-09T08:09:36;98845.88;;;10.90;63.24
71795;BME280;59641;45.188;5.712;2023-01-09T08:12:01;98850.19;;;10.91;63.60
71795;BME280;59641;45.188;5.712;2023-01-09T08:14:28;98858.56;;;10.94;63.18
71795;BME280;59641;45.188;5.712;2023-01-09T08:16:53;98856.47;;;10.96;63.36
71795;BME280;59641;45.188;5.712;2023-01-09T08:19:19;98865.38;;;10.97;63.11
71795;BME280;59641;45.188;5.712;2023-01-09T08:21:44;98862.44;;;10.98;62.97
71795;BME280;59641;45.188;5.712;2023-01-09T08:24:10;98861.41;;;10.99;62.81
71795;BME280;59641;45.188;5.712;2023-01-09T08:26:35;98851.09;;;10.96;62.58
71795;BME280;59641;45.188;5.712;2023-01-09T08:29:00;98840.38;;;10.96;62.61
71795;BME280;59641;45.188;5.712;2023-01-09T08:31:26;98842.81;;;10.98;63.11
71795;BME280;59641;45.188;5.712;2023-01-09T08:33:51;98836.38;;;10.99;62.43
71795;BME280;59641;45.188;5.712;2023-01-09T08:36:17;98834.53;;;10.99;62.55
71795;BME280;59641;45.188;5.712;2023-01-09T08:38:42;98833.72;;;10.99;62.23
71795;BME280;59641;45.188;5.712;2023-01-09T08:41:07;98834.28;;;11.01;62.15
71795;BME280;59641;45.188;5.712;2023-01-09T08:43:51;98834.88;;;11.03;62.11
71795;BME280;59641;45.188;5.712;2023-01-09T08:46:35;98835.47;;;11.05;62.42
71795;BME280;59641;45.188;5.712;2023-01-09T08:49:19;98836.03;;;11.07;62.40
71795;BME280;59641;45.188;5.712;2023-01-09T08:51:45;98828.09;;;11.12;62.60
71795;BME280;59641;45.188;5.712;2023-01-09T08:54:11;98816.66;;;11.17;62.51
71795;BME280;59641;45.188;5.712;2023-01-09T08:56:36;98820.50;;;11.21;62.71
71795;BME280;59641;45.188;5.712;2023-01-09T08:59:01;98824.31;;;11.25;62.79
71795;BME280;59641;45.188;5.712;2023-01-09T09:01:26;98822.81;;;11.29;62.92
71795;BME280;59641;45.188;5.712;2023-01-09T09:03:52;98819.63;;;11.32;62.76
71795;BME280;59641;45.188;5.712;2023-01-09T09:06:17;98821.84;;;11.35;62.67
71795;BME280;59641;45.188;5.712;2023-01-09T09:08:43;98823.25;;;11.38;62.67
71795;BME280;59641;45.188;5.712;2023-01-09T09:11:08;98817.63;;;11.39;62.62
71795;BME280;59641;45.188;5.712;2023-01-09T09:13:33;98821.72;;;11.42;62.74
71795;BME280;59641;45.188;5.712;2023-01-09T09:15:59;98824.16;;;11.43;62.74
71795;BME280;59641;45.188;5.712;2023-01-09T09:18:24;98812.72;;;11.48;62.62
71795;BME280;59641;45.188;5.712;2023-01-09T09:20:49;98815.13;;;11.49;62.89
71795;BME280;59641;45.188;5.712;2023-01-09T09:23:15;98825.66;;;11.51;62.93
71795;BME280;59641;45.188;5.712;2023-01-09T09:25:40;98836.97;;;11.53;62.49
71795;BME280;59641;45.188;5.712;2023-01-09T09:28:06;98837.56;;;11.55;62.61
71795;BME280;59641;45.188;5.712;2023-01-09T09:30:32;98845.38;;;11.57;62.45
71795;BME280;59641;45.188;5.712;2023-01-09T09:32:57;98845.13;;;11.58;62.37
71795;BME280;59641;45.188;5.712;2023-01-09T09:35:22;98855.66;;;11.60;62.30
71795;BME280;59641;45.188;5.712;2023-01-09T09:37:56;98858.94;;;11.62;62.23
71795;BME280;59641;45.188;5.712;2023-01-09T09:46:31;98882.63;;;11.65;61.96
71795;BME280;59641;45.188;5.712;2023-01-09T09:49:15;98899.56;;;11.65;61.71
71795;BME280;59641;45.188;5.712;2023-01-09T09:54:42;98910.91;;;11.67;61.76
71795;BME280;59641;45.188;5.712;2023-01-09T09:57:16;98913.59;;;11.67;62.13
71795;BME280;59641;45.188;5.712;2023-01-09T09:59:43;98910.91;;;11.67;61.96
71795;BME280;59641;45.188;5.712;2023-01-09T10:02:28;98916.84;;;11.69;61.93
71795;BME280;59641;45.188;5.712;2023-01-09T10:04:59;98912.28;;;11.70;61.77
71795;BME280;59641;45.188;5.712;2023-01-09T10:07:34;98920.59;;;11.68;61.65
71795;BME280;59641;45.188;5.712;2023-01-09T10:10:04;98922.47;;;11.68;61.94
71795;BME280;59641;45.188;5.712;2023-01-09T10:12:40;98920.59;;;11.68;61.63
71795;BME280;59641;45.188;5.712;2023-01-09T10:15:16;98920.13;;;11.71;61.90
71795;BME280;59641;45.188;5.712;2023-01-09T10:20:46;98933.09;;;11.75;61.89
71795;BME280;59641;45.188;5.712;2023-01-09T10:27:09;98937.66;;;11.74;61.66
71795;BME280;59641;45.188;5.712;2023-01-09T10:31:54;98943.16;;;11.67;61.90
71795;BME280;59641;45.188;5.712;2023-01-09T10:37:33;98937.06;;;11.72;62.00
71795;BME280;59641;45.188;5.712;2023-01-09T10:40:25;98928.50;;;11.75;61.75
71795;BME280;59641;45.188;5.712;2023-01-09T10:45:32;98931.56;;;11.79;61.85
71795;BME280;59641;45.188;5.712;2023-01-09T10:48:16;98931.06;;;11.82;62.07
71795;BME280;59641;45.188;5.712;2023-01-09T10:50:46;98929.19;;;11.82;61.00
71795;BME280;59641;45.188;5.712;2023-01-09T10:53:19;98920.06;;;11.83;61.15
71795;BME280;59641;45.188;5.712;2023-01-09T10:55:46;98909.91;;;11.85;61.41
71795;BME280;59641;45.188;5.712;2023-01-09T10:58:15;98908.84;;;11.86;60.99
71795;BME280;59641;45.188;5.712;2023-01-09T11:00:41;98913.19;;;11.87;60.37
71795;BME280;59641;45.188;5.712;2023-01-09T11:03:15;98921.63;;;11.91;60.57
71795;BME280;59641;45.188;5.712;2023-01-09T11:05:40;98928.38;;;11.93;61.15
71795;BME280;59641;45.188;5.712;2023-01-09T11:10:53;98924.72;;;12.00;60.46
71795;BME280;59641;45.188;5.712;2023-01-09T11:15:58;98929.97;;;12.06;60.74
71795;BME280;59641;45.188;5.712;2023-01-09T11:18:24;98927.03;;;12.08;60.39
71795;BME280;59641;45.188;5.712;2023-01-09T11:20:50;98927.63;;;12.10;60.47
71795;BME280;59641;45.188;5.712;2023-01-09T11:25:54;98919.06;;;12.13;60.51
71795;BME280;59641;45.188;5.712;2023-01-09T11:28:19;98921.75;;;12.13;60.55
71795;BME280;59641;45.188;5.712;2023-01-09T11:30:54;98922.34;;;12.15;60.65
71795;BME280;59641;45.188;5.712;2023-01-09T11:33:23;98916.69;;;12.17;60.10
71795;BME280;59641;45.188;5.712;2023-01-09T11:38:29;98913.19;;;12.16;60.13
71795;BME280;59641;45.188;5.712;2023-01-09T11:40:59;98919.97;;;12.19;60.32
71795;BME280;59641;45.188;5.712;2023-01-09T11:43:31;98916.78;;;12.22;60.48
71795;BME280;59641;45.188;5.712;2023-01-09T11:46:01;98913.06;;;12.23;60.42
71795;BME280;59641;45.188;5.712;2023-01-09T11:51:26;98906.38;;;12.25;59.92
71795;BME280;59641;45.188;5.712;2023-01-09T11:56:39;98906.38;;;12.25;59.63
71795;BME280;59641;45.188;5.712;2023-01-09T11:59:11;98905.31;;;12.26;59.87
71795;BME280;59641;45.188;5.712;2023-01-09T12:21:32;98884.38;;;12.28;59.04
71795;BME280;59641;45.188;5.712;2023-01-09T12:32:30;98884.13;;;12.30;59.11
71795;BME280;59641;45.188;5.712;2023-01-09T12:35:16;98886.59;;;12.31;58.81
71795;BME280;59641;45.188;5.712;2023-01-09T12:38:01;98878.97;;;12.28;57.98
71795;BME280;59641;45.188;5.712;2023-01-09T12:40:38;98873.03;;;12.26;57.31
71795;BME280;59641;45.188;5.712;2023-01-09T12:48:29;98854.47;;;12.25;57.32
71795;BME280;59641;45.188;5.712;2023-01-09T12:53:32;98865.78;;;12.27;57.79
71795;BME280;59641;45.188;5.712;2023-01-09T12:56:06;98863.66;;;12.29;57.41
71795;BME280;59641;45.188;5.712;2023-01-09T12:58:43;98854.53;;;12.30;57.50
71795;BME280;59641;45.188;5.712;2023-01-09T13:01:15;98849.16;;;12.30;57.41
71795;BME280;59641;45.188;5.712;2023-01-09T13:04:02;98853.16;;;12.27;57.50
71795;BME280;59641;45.188;5.712;2023-01-09T13:06:34;98855.25;;;12.25;57.15
71795;BME280;59641;45.188;5.712;2023-01-09T13:09:42;98841.00;;;12.25;57.43
71795;BME280;59641;45.188;5.712;2023-01-09T13:12:15;98831.06;;;12.25;57.36
71795;BME280;59641;45.188;5.712;2023-01-09T13:15:04;98827.06;;;12.28;57.34
71795;BME280;59641;45.188;5.712;2023-01-09T13:17:37;98828.44;;;12.30;57.99
71795;BME280;59641;45.188;5.712;2023-01-09T13:20:20;98813.97;;;12.31;57.19
71795;BME280;59641;45.188;5.712;2023-01-09T13:22:48;98813.69;;;12.33;57.35
71795;BME280;59641;45.188;5.712;2023-01-09T13:27:56;98815.06;;;12.35;57.43
71795;BME280;59641;45.188;5.712;2023-01-09T13:35:52;98803.81;;;12.39;57.38
71795;BME280;59641;45.188;5.712;2023-01-09T13:38:21;98800.31;;;12.38;57.57
71795;BME280;59641;45.188;5.712;2023-01-09T13:41:00;98787.44;;;12.40;57.27
71795;BME280;59641;45.188;5.712;2023-01-09T13:44:24;98781.25;;;12.40;56.62
71795;BME280;59641;45.188;5.712;2023-01-09T13:46:55;98780.44;;;12.39;57.02
71795;BME280;59641;45.188;5.712;2023-01-09T13:51:57;98769.41;;;12.41;57.04
71795;BME280;59641;45.188;5.712;2023-01-09T13:59:42;98755.56;;;12.32;56.85
71795;BME280;59641;45.188;5.712;2023-01-09T14:05:15;98758.75;;;12.29;56.84
71795;BME280;59641;45.188;5.712;2023-01-09T14:07:42;98777.56;;;12.29;57.06
71795;BME280;59641;45.188;5.712;2023-01-09T14:12:47;98794.78;;;12.28;56.75
71795;BME280;59641;45.188;5.712;2023-01-09T14:15:39;98793.16;;;12.27;56.89
71795;BME280;59641;45.188;5.712;2023-01-09T14:18:26;98789.91;;;12.25;56.91
71795;BME280;59641;45.188;5.712;2023-01-09T14:20:59;98786.56;;;12.18;57.21
71795;BME280;59641;45.188;5.712;2023-01-09T14:26:19;98817.91;;;12.12;57.44
71795;BME280;59641;45.188;5.712;2023-01-09T14:28:44;98858.44;;;12.05;57.49
71795;BME280;59641;45.188;5.712;2023-01-09T14:31:26;98886.63;;;12.03;57.58
71795;BME280;59641;45.188;5.712;2023-01-09T14:37:11;98933.44;;;11.66;57.56
71795;BME280;59641;45.188;5.712;2023-01-09T14:39:39;98928.47;;;11.46;57.83
71795;BME280;59641;45.188;5.712;2023-01-09T14:42:10;98920.91;;;11.32;58.41
71795;BME280;59641;45.188;5.712;2023-01-09T14:52:47;98921.84;;;10.90;59.34
71795;BME280;59641;45.188;5.712;2023-01-09T14:55:22;98914.97;;;10.82;59.36
71795;BME280;59641;45.188;5.712;2023-01-09T14:57:49;98923.22;;;10.69;59.33
71795;BME280;59641;45.188;5.712;2023-01-09T15:00:20;98934.16;;;10.56;59.35
71795;BME280;59641;45.188;5.712;2023-01-09T15:02:46;98942.06;;;10.51;59.66
71795;BME280;59641;45.188;5.712;2023-01-09T15:05:15;98952.94;;;10.44;59.91
71795;BME280;59641;45.188;5.712;2023-01-09T15:07:47;98952.09;;;10.43;59.85
71795;BME280;59641;45.188;5.712;2023-01-09T15:10:32;98959.91;;;10.45;60.39
71795;BME280;59641;45.188;5.712;2023-01-09T15:13:00;98961.41;;;10.41;60.39
71795;BME280;59641;45.188;5.712;2023-01-09T15:15:27;98973.78;;;10.42;60.50
71795;BME280;59641;45.188;5.712;2023-01-09T15:17:58;98978.91;;;10.43;60.68
71795;BME280;59641;45.188;5.712;2023-01-09T15:20:27;98974.38;;;10.44;60.63
71795;BME280;59641;45.188;5.712;2023-01-09T15:22:55;98975.41;;;10.43;60.57
71795;BME280;59641;45.188;5.712;2023-01-09T15:25:28;98983.47;;;10.43;60.49
71795;BME280;59641;45.188;5.712;2023-01-09T15:27:55;98988.81;;;10.43;60.18